Thursday, September 20, 2018, 10:10 PM EDT
Back to Local

KRME, Griffiss Airfield

Location: Rome, NY, United States Lat: 43.233
Local Time: 10:10 PM EDT ( 2:10 GMT) Lon: -75.4
Time Zone: US/Eastern Elev: 505 ft

Show me the last for .
Show Coded

Time T Td Feel RH Dir Speed Gust Alt SLP Vis Weather Sky Remarks
2018-09-20 21:53 64 59 - 83 110° 8 - 30.20 30.19 10 SCT045 BKN090 OVC110 None
2018-09-20 20:53 65 59 - 81 100° 10 - 30.20 30.19 10 SCT044 OVC095 None
2018-09-20 19:53 65 60 - 84 110° 8 - 30.19 30.18 10 BKN100 1-hr Precip Total: Trace
6-hr Precip Total (8pm): 0.00"
6-hr Min Temp (8pm): 64.9°F
6-hr Max Temp (8pm): 72.0°F
2018-09-20 18:53 67 60 - 78 110° 7 - 30.19 30.18 10 SCT110 None
2018-09-20 17:53 69 60 - 73 90° 6 - 30.18 30.17 10 CLR None
2018-09-20 16:53 70 59 - 68 70° 3 - 30.18 30.17 10 FEW120 None
2018-09-20 15:53 71 58 76 63 20° 3 - 30.19 30.18 10 FEW120 None
2018-09-20 14:53 70 57 - 63 Variable 5 - 30.19 30.18 10 CLR None
2018-09-20 13:53 69 57 - 65 30° 5 - 30.20 30.20 10 SCT032 6-hr Min Temp (2pm): 54.0°F
6-hr Max Temp (2pm): 70.0°F
2018-09-20 12:53 67 56 - 67 180° 5 - 30.22 30.21 10 FEW029 None
2018-09-20 11:53 66 57 - 72 140° 9 - 30.24 30.23 10 CLR None
2018-09-20 11:09 64 56 - 74 150° 9 - 30.25 - 10 SCT019 None
2018-09-20 11:02 65 57 - 75 130° 9 - 30.25 - 10 BKN019 None
2018-09-20 10:53 63 57 - 80 110° 8 - 30.25 30.24 10 SCT017 None
2018-09-20 09:53 60 55 - 83 90° 8 - 30.25 30.24 10 OVC032 None
2018-09-20 09:13 58 56 - 93 110° 8 - 30.24 - 10 SCT021 OVC032 None
2018-09-20 09:02 57 56 - 96 110° 8 - 30.24 - 10 BKN021 OVC033 None
2018-09-20 08:53 56 55 - 96 110° 6 - 30.23 30.22 10 SCT021 OVC033 None
2018-09-20 07:53 54 53 - 96 - Calm - 30.24 30.23 10 FEW022 OVC032 6-hr Min Temp (8am): 48.9°F
6-hr Max Temp (8am): 54.0°F
2018-09-20 06:53 53 51 - 92 - Calm - 30.20 30.19 10 FEW019 OVC031 None
2018-09-20 05:53 51 50 - 96 - Calm - 30.18 30.17 10 OVC028 None
2018-09-20 05:06 49 49 48 100 330° 3 - 30.16 - 10 BKN029 None
2018-09-20 04:53 50 49 - 96 - Calm - 30.15 30.14 10 FEW028 None
2018-09-20 03:53 50 50 48 100 110° 5 - 30.14 30.14 10 CLR None
2018-09-20 02:53 50 50 48 100 90° 5 - 30.15 30.15 10 CLR None
2018-09-20 01:53 51 50 - 96 - Calm - 30.15 30.15 10 CLR 6-hr Min Temp (2am): 50.0°F
6-hr Max Temp (2am): 61.0°F
2018-09-20 00:53 52 52 - 100 - Calm - 30.15 30.14 10 CLR 24-hr Min Temp (1am): 52.0°F
24-hr Max Temp (1am): 73.0°F
2018-09-19 23:53 54 52 - 92 - Calm - 30.14 30.13 10 CLR None
2018-09-19 22:53 56 52 - 86 - Calm - 30.13 30.12 10 CLR None

Support USWX by starting your Amazon purchase here.